Time;durP1;ratioP1;P1;durP2;ratioP2;P2;SDS_P1;SDS_P2;PMS_P1;PMS_P2;Temp;Humidity;BMP_temperature;BMP_pressure;BME280_temperature;BME280_humidity;BME280_pressure;Samples;Min_cycle;Max_cycle;Signal;HPM_P1;HPM_P2
2024/01/08 06:56:51;;;;;;;5.30;1.90;;;;;;;2.98;50.11;101396.13;3050335;23;20317;-66
2024/01/08 06:59:19;;;;;;;6.57;1.60;;;;;;;3.07;49.64;101400.06;4883453;29;20223;-65
2024/01/08 07:01:48;;;;;;;3.53;1.93;;;;;;;3.13;49.14;101395.34;4881657;29;20214;-64
2024/01/08 07:04:16;;;;;;;3.80;1.90;;;;;;;3.17;49.08;101389.00;4880234;29;20264;-66
2024/01/08 07:06:44;;;;;;;3.73;2.10;;;;;;;3.19;49.08;101389.78;4881833;29;20330;-64
2024/01/08 07:09:12;;;;;;;4.90;2.00;;;;;;;3.16;49.15;101397.81;4885220;29;20610;-65
2024/01/08 07:11:40;;;;;;;3.50;2.10;;;;;;;3.15;49.66;101392.66;4884551;29;20351;-66
2024/01/08 07:14:09;;;;;;;4.30;2.10;;;;;;;3.22;49.75;101404.50;4878448;29;20223;-65
2024/01/08 07:16:37;;;;;;;3.50;1.70;;;;;;;3.27;49.79;101408.56;4878823;29;20246;-63
2024/01/08 07:19:07;;;;;;;4.47;1.70;;;;;;;3.30;49.62;101408.44;4881764;29;20220;-65
2024/01/08 07:21:35;;;;;;;4.20;1.70;;;;;;;3.31;49.36;101404.88;4885884;29;20283;-66
2024/01/08 07:24:06;;;;;;;7.67;1.97;;;;;;;3.32;49.10;101406.59;4879320;29;20262;-65
2024/01/08 07:26:35;;;;;;;5.40;2.30;;;;;;;3.24;49.25;101407.91;4883850;29;20207;-65
2024/01/08 07:29:04;;;;;;;7.63;1.87;;;;;;;3.25;49.29;101409.59;4881250;29;20294;-65
2024/01/08 07:31:34;;;;;;;4.13;2.07;;;;;;;3.21;49.59;101419.38;4884056;29;20298;-67
2024/01/08 07:34:02;;;;;;;3.63;1.90;;;;;;;3.20;49.75;101416.84;4882251;29;20997;-66
2024/01/08 07:36:31;;;;;;;5.33;2.20;;;;;;;3.19;49.72;101405.50;4882737;29;20232;-66
2024/01/08 07:38:58;;;;;;;5.50;2.20;;;;;;;3.21;49.63;101408.03;4882854;29;20232;-64
2024/01/08 07:41:27;;;;;;;6.17;2.50;;;;;;;3.20;49.58;101420.31;4879916;29;20243;-67
2024/01/08 07:43:55;;;;;;;8.10;2.50;;;;;;;3.20;49.77;101422.94;4879424;29;20222;-66
2024/01/08 07:46:23;;;;;;;5.63;2.10;;;;;;;3.22;49.64;101418.47;4877946;29;20587;-64
2024/01/08 07:48:53;;;;;;;3.73;1.83;;;;;;;3.22;49.64;101425.47;4884903;29;20209;-65
2024/01/08 07:51:22;;;;;;;4.13;2.07;;;;;;;3.19;49.29;101428.25;4884500;29;20203;-66
2024/01/08 07:53:51;;;;;;;5.47;1.73;;;;;;;3.13;49.42;101432.03;4880967;29;20232;-67
2024/01/08 07:56:24;;;;;;;3.40;1.83;;;;;;;3.22;49.82;101435.97;4881196;29;20251;-65
2024/01/08 07:58:52;;;;;;;4.83;1.93;;;;;;;3.19;49.84;101430.84;4885578;29;20572;-67
2024/01/08 08:01:20;;;;;;;7.13;2.10;;;;;;;3.13;49.58;101445.13;4879367;29;20291;-64
2024/01/08 08:03:50;;;;;;;3.83;1.70;;;;;;;3.10;49.67;101445.28;4879789;29;20228;-65
2024/01/08 08:06:19;;;;;;;4.20;2.17;;;;;;;3.12;49.98;101446.06;4878514;29;20647;-63
2024/01/08 08:08:49;;;;;;;4.93;1.73;;;;;;;3.13;49.62;101453.00;4880765;29;21105;-66
2024/01/08 08:11:18;;;;;;;4.50;1.97;;;;;;;3.09;49.95;101455.81;4884193;29;20298;-66
2024/01/08 08:13:46;;;;;;;4.23;2.13;;;;;;;3.12;50.19;101453.91;4882532;29;20221;-65
2024/01/08 08:16:14;;;;;;;5.73;2.10;;;;;;;3.14;50.37;101448.59;4882792;29;20679;-65
2024/01/08 08:18:42;;;;;;;4.10;2.00;;;;;;;3.12;50.16;101451.28;4882770;29;20217;-64
2024/01/08 08:21:10;;;;;;;3.93;2.00;;;;;;;3.12;50.31;101456.53;4884781;29;20272;-65
2024/01/08 08:23:40;;;;;;;5.03;2.30;;;;;;;3.06;50.29;101456.84;4885694;29;21027;-65
2024/01/08 08:26:08;;;;;;;7.47;2.20;;;;;;;3.08;50.55;101454.97;4886589;29;20306;-64
2024/01/08 08:28:41;;;;;;;6.10;2.70;;;;;;;3.04;50.17;101453.47;4885263;29;20207;-65
2024/01/08 08:31:09;;;;;;;6.63;2.37;;;;;;;2.97;49.52;101462.56;4884413;29;20252;-68
2024/01/08 08:33:39;;;;;;;4.77;2.33;;;;;;;2.89;49.57;101460.31;4886102;29;20214;-66
2024/01/08 08:36:07;;;;;;;6.97;2.47;;;;;;;2.78;49.37;101459.13;4883154;29;20223;-66
2024/01/08 08:38:36;;;;;;;4.80;2.13;;;;;;;2.75;49.33;101461.88;4883970;29;20209;-66
2024/01/08 08:41:08;;;;;;;5.93;2.37;;;;;;;2.73;48.66;101466.38;4885891;29;20203;-66
2024/01/08 08:43:37;;;;;;;4.73;2.30;;;;;;;2.70;48.66;101464.75;4884286;29;20211;-66
2024/01/08 08:46:05;;;;;;;6.73;2.37;;;;;;;2.72;48.42;101462.06;4882997;29;20227;-64
2024/01/08 08:48:32;;;;;;;5.83;2.30;;;;;;;2.72;48.54;101478.63;4883261;29;20247;-65
2024/01/08 08:51:00;;;;;;;5.13;2.33;;;;;;;2.66;48.40;101471.03;4884094;29;20220;-65
2024/01/08 08:53:29;;;;;;;6.47;2.50;;;;;;;2.74;48.68;101475.91;4883118;29;20221;-67
2024/01/08 08:55:57;;;;;;;5.47;2.40;;;;;;;2.70;47.96;101479.59;4885116;29;20226;-66
2024/01/08 08:58:28;;;;;;;5.87;2.50;;;;;;;2.65;48.11;101478.03;4887942;29;20219;-66
2024/01/08 09:00:56;;;;;;;5.07;2.20;;;;;;;2.61;47.62;101480.91;4885331;29;20262;-66
2024/01/08 09:03:25;;;;;;;6.47;2.30;;;;;;;2.59;47.59;101488.81;4881643;29;20223;-66
2024/01/08 09:05:54;;;;;;;5.83;1.90;;;;;;;2.60;47.64;101479.19;4886492;29;20889;-65
2024/01/08 09:08:25;;;;;;;4.47;2.20;;;;;;;2.57;47.34;101488.03;4884941;29;21105;-66
2024/01/08 09:10:54;;;;;;;7.60;2.30;;;;;;;2.49;46.84;101490.16;4886744;29;20352;-66
2024/01/08 09:13:22;;;;;;;4.77;1.97;;;;;;;2.56;46.72;101504.66;4884042;29;20614;-66
2024/01/08 09:15:51;;;;;;;4.87;2.40;;;;;;;2.58;46.28;101492.34;4883231;29;20243;-65
2024/01/08 09:18:19;;;;;;;4.83;2.20;;;;;;;2.69;46.40;101498.84;4883421;29;20262;-66
2024/01/08 09:20:47;;;;;;;4.93;2.57;;;;;;;2.67;45.66;101500.69;4884652;29;20276;-64
2024/01/08 09:23:15;;;;;;;8.23;2.77;;;;;;;2.59;45.04;101504.53;4881519;29;20799;-65
2024/01/08 09:25:43;;;;;;;5.83;2.57;;;;;;;2.57;45.19;101515.97;4883717;29;20303;-67
2024/01/08 09:28:11;;;;;;;5.17;2.30;;;;;;;2.61;45.04;101523.63;4883530;29;20305;-66
2024/01/08 09:30:39;;;;;;;6.40;2.60;;;;;;;2.52;44.90;101529.31;4883423;29;20216;-65
2024/01/08 09:33:08;;;;;;;4.77;2.13;;;;;;;2.48;45.09;101537.34;4883098;29;20278;-65
2024/01/08 09:35:37;;;;;;;6.33;2.40;;;;;;;2.45;45.26;101527.03;4886405;29;20220;-64
2024/01/08 09:38:05;;;;;;;6.47;2.63;;;;;;;2.50;45.39;101535.53;4883626;29;20775;-66
2024/01/08 09:40:33;;;;;;;6.40;3.00;;;;;;;2.74;45.02;101533.53;4883156;29;20229;-65
2024/01/08 09:43:06;;;;;;;5.53;2.50;;;;;;;3.02;44.38;101536.53;4882541;29;20207;-66
2024/01/08 09:45:34;;;;;;;5.07;2.30;;;;;;;3.16;44.38;101539.34;4880664;29;20529;-65
2024/01/08 09:48:04;;;;;;;6.80;3.20;;;;;;;3.07;43.45;101533.69;4882368;29;20656;-64
2024/01/08 09:50:34;;;;;;;5.97;2.80;;;;;;;3.02;44.10;101541.78;4882864;29;20290;-67
2024/01/08 09:53:02;;;;;;;7.43;2.80;;;;;;;2.99;43.58;101541.94;4879765;29;20809;-66
2024/01/08 09:55:31;;;;;;;5.43;2.67;;;;;;;3.05;43.28;101539.00;4881334;29;20231;-66
2024/01/08 09:58:01;;;;;;;6.17;2.80;;;;;;;3.13;43.32;101536.03;4880597;29;20728;-66
2024/01/08 10:00:29;;;;;;;5.07;2.43;;;;;;;3.27;43.73;101533.56;4881823;29;21028;-66
2024/01/08 10:02:57;;;;;;;5.97;2.37;;;;;;;3.25;42.55;101541.53;4879347;29;20214;-66
2024/01/08 10:05:28;;;;;;;6.63;2.80;;;;;;;3.20;42.50;101540.88;4878589;29;20224;-64
2024/01/08 10:07:59;;;;;;;6.13;2.73;;;;;;;3.19;42.86;101536.56;4884310;29;20211;-67
2024/01/08 10:10:29;;;;;;;6.43;2.67;;;;;;;3.13;42.72;101541.25;4880875;29;20253;-66
2024/01/08 10:12:57;;;;;;;5.97;2.47;;;;;;;3.46;42.41;101541.34;4880890;29;20213;-67
2024/01/08 10:15:25;;;;;;;4.80;2.47;;;;;;;5.23;40.47;101536.16;4880671;29;20304;-66
2024/01/08 10:18:01;;;;;;;5.43;3.07;;;;;;;7.00;37.71;101529.63;4878793;29;20241;-66
2024/01/08 10:20:30;;;;;;;7.33;3.20;;;;;;;8.29;35.56;101527.91;4881596;29;20225;-66
2024/01/08 10:23:08;;;;;;;5.50;2.70;;;;;;;10.27;32.53;101531.69;4881461;29;20205;-66
2024/01/08 10:25:38;;;;;;;4.77;2.43;;;;;;;11.15;30.40;101524.53;4879844;29;20302;-66
2024/01/08 10:28:09;;;;;;;5.57;2.67;;;;;;;10.92;30.83;101519.28;4881574;29;20317;-65
2024/01/08 10:30:37;;;;;;;4.93;2.80;;;;;;;9.65;31.87;101524.09;4881523;29;20266;-66
2024/01/08 10:33:08;;;;;;;5.77;3.07;;;;;;;8.67;33.21;101520.78;4880007;29;20251;-66
2024/01/08 10:35:37;;;;;;;6.30;2.60;;;;;;;7.73;33.76;101524.75;4880794;29;20208;-67
2024/01/08 10:38:07;;;;;;;4.50;2.57;;;;;;;6.79;35.09;101517.81;4879063;29;20251;-67
2024/01/08 10:40:35;;;;;;;4.83;2.73;;;;;;;6.18;36.43;101531.38;4881515;29;20209;-65
2024/01/08 10:43:04;;;;;;;5.97;3.03;;;;;;;5.60;37.25;101519.91;4880469;29;20219;-68
2024/01/08 10:45:32;;;;;;;8.63;3.60;;;;;;;5.18;37.84;101522.44;4882381;29;20215;-66
2024/01/08 10:48:07;;;;;;;9.80;3.40;;;;;;;4.82;38.69;101523.56;4888341;29;20277;-65
2024/01/08 10:50:39;;;;;;;6.37;3.20;;;;;;;4.52;39.43;101526.09;4883931;29;20216;-66
2024/01/08 10:53:20;;;;;;;5.43;2.83;;;;;;;4.37;39.65;101524.31;4882984;29;20205;-66
2024/01/08 10:55:49;;;;;;;6.07;2.80;;;;;;;4.34;39.77;101523.63;4884627;29;20208;-67
2024/01/08 10:58:24;;;;;;;6.40;3.10;;;;;;;4.56;39.81;101534.69;4886605;29;20220;-65
2024/01/08 11:00:53;;;;;;;7.00;2.60;;;;;;;4.75;39.43;101530.06;4881614;29;20343;-66
2024/01/08 11:03:21;;;;;;;5.37;2.57;;;;;;;4.97;39.26;101528.88;4882448;29;20236;-67
2024/01/08 11:05:51;;;;;;;5.30;2.63;;;;;;;5.02;39.18;101526.84;4879253;29;20304;-65
2024/01/08 11:08:22;;;;;;;4.57;2.70;;;;;;;4.90;38.56;101518.72;4878825;29;20214;-67
2024/01/08 11:10:51;;;;;;;5.40;2.63;;;;;;;4.89;38.47;101524.91;4879386;29;20297;-65
2024/01/08 11:13:18;;;;;;;6.37;2.27;;;;;;;5.01;38.98;101518.13;4880135;29;20667;-65
2024/01/08 11:15:47;;;;;;;5.13;2.30;;;;;;;4.96;38.32;101516.69;4878662;29;20671;-66
2024/01/08 11:18:26;;;;;;;6.00;2.47;;;;;;;5.01;38.51;101525.16;4880677;29;20229;-67
2024/01/08 11:21:00;;;;;;;8.40;2.73;;;;;;;5.09;38.43;101517.69;4880174;29;20622;-66
2024/01/08 11:23:38;;;;;;;5.37;2.87;;;;;;;4.97;38.07;101518.38;4881071;29;20296;-66
2024/01/08 11:26:15;;;;;;;4.80;2.50;;;;;;;4.90;38.50;101518.72;4881435;29;20213;-66
2024/01/08 11:28:43;;;;;;;6.20;2.70;;;;;;;4.88;38.77;101523.22;4882977;29;20318;-65
2024/01/08 11:31:54;;;;;;;4.83;2.40;;;;;;;4.80;38.57;101517.53;4878920;29;20213;-66
2024/01/08 11:34:55;;;;;;;6.37;2.63;;;;;;;4.79;38.67;101515.84;4881753;29;20296;-66
2024/01/08 11:37:32;;;;;;;7.37;3.20;;;;;;;4.74;38.92;101528.41;4877665;29;20542;-66
2024/01/08 11:40:11;;;;;;;6.30;3.30;;;;;;;4.50;38.70;101519.22;4880354;29;20228;-66
2024/01/08 11:42:39;;;;;;;7.27;3.07;;;;;;;4.47;39.12;101514.16;4878106;29;20217;-68
2024/01/08 11:45:07;;;;;;;6.73;2.90;;;;;;;4.40;39.49;101520.66;4879912;29;20304;-67
2024/01/08 11:47:36;;;;;;;6.70;2.97;;;;;;;4.49;39.42;101517.53;4882853;29;20214;-66
2024/01/08 11:50:05;;;;;;;8.80;2.87;;;;;;;4.54;39.35;101515.50;4884124;29;20227;-65
2024/01/08 11:52:34;;;;;;;5.47;3.13;;;;;;;4.58;39.29;101519.66;4883062;29;20213;-65
2024/01/08 11:55:04;;;;;;;5.93;3.00;;;;;;;4.61;39.26;101514.25;4881970;29;20218;-66
2024/01/08 11:57:35;;;;;;;7.53;3.20;;;;;;;4.63;39.26;101522.88;4881878;29;20255;-66
2024/01/08 12:00:14;;;;;;;5.70;2.60;;;;;;;4.68;39.21;101514.75;4883310;29;20276;-65
2024/01/08 12:02:42;;;;;;;5.90;2.67;;;;;;;4.69;39.23;101509.41;4882663;29;20205;-65
2024/01/08 12:05:10;;;;;;;5.90;2.60;;;;;;;4.75;39.41;101514.31;4883572;29;20224;-64
2024/01/08 12:07:39;;;;;;;5.80;2.83;;;;;;;4.80;39.47;101509.66;4885474;29;20221;-64
2024/01/08 12:10:12;;;;;;;6.40;2.80;;;;;;;4.88;39.57;101510.06;4882640;29;20245;-66
2024/01/08 12:12:42;;;;;;;6.70;2.80;;;;;;;4.88;39.72;101507.44;4883950;29;20236;-66
2024/01/08 12:15:10;;;;;;;8.43;3.00;;;;;;;4.90;39.83;101512.63;4884614;29;20208;-66
2024/01/08 12:17:38;;;;;;;7.10;3.27;;;;;;;4.95;39.64;101514.97;4885034;29;20224;-68
2024/01/08 12:20:07;;;;;;;6.33;2.40;;;;;;;4.86;39.43;101511.09;4882772;29;20221;-67
2024/01/08 12:22:35;;;;;;;11.70;4.70;;;;;;;4.71;39.30;101512.81;4883451;29;20581;-67
2024/01/08 12:25:07;;;;;;;7.43;3.23;;;;;;;4.51;39.19;101513.03;4884194;29;20325;-66
2024/01/08 12:27:35;;;;;;;6.63;3.07;;;;;;;4.27;39.29;101517.84;4885398;29;20221;-67
2024/01/08 12:30:08;;;;;;;8.67;3.13;;;;;;;4.09;39.93;101514.44;4882895;29;20216;-67
2024/01/08 12:32:37;;;;;;;9.33;3.30;;;;;;;4.02;40.03;101518.31;4885284;29;20241;-67
2024/01/08 12:35:09;;;;;;;6.17;2.97;;;;;;;3.97;40.50;101522.94;4885096;29;20225;-66
2024/01/08 12:37:42;;;;;;;7.30;3.20;;;;;;;3.96;40.36;101518.63;4883539;29;20220;-68
2024/01/08 12:40:12;;;;;;;6.53;2.60;;;;;;;3.87;40.11;101519.09;4882502;29;20873;-66
2024/01/08 12:42:42;;;;;;;5.47;2.77;;;;;;;3.78;40.12;101517.81;4883681;29;20220;-67
2024/01/08 12:45:12;;;;;;;6.30;3.03;;;;;;;3.74;40.15;101520.69;4880695;29;20212;-66
2024/01/08 12:47:40;;;;;;;6.93;2.90;;;;;;;3.77;40.29;101513.50;4885827;29;20572;-67
2024/01/08 12:50:09;;;;;;;5.63;2.40;;;;;;;3.70;40.58;101519.97;4884120;29;20220;-65
2024/01/08 12:52:37;;;;;;;6.33;2.90;;;;;;;3.73;40.81;101522.44;4882342;29;20232;-67
2024/01/08 12:55:06;;;;;;;6.63;3.00;;;;;;;3.69;40.56;101525.34;4881990;29;20221;-66
2024/01/08 12:57:34;;;;;;;6.33;2.80;;;;;;;3.71;40.88;101520.81;4883517;29;20304;-66
2024/01/08 13:00:04;;;;;;;6.50;3.37;;;;;;;3.74;40.80;101516.28;4883215;29;20300;-66
2024/01/08 13:02:33;;;;;;;7.80;3.10;;;;;;;3.73;40.67;101511.97;4889357;29;20208;-67
2024/01/08 13:05:04;;;;;;;5.63;3.00;;;;;;;3.75;40.94;101520.59;4886089;29;20204;-67
2024/01/08 13:07:32;;;;;;;7.07;2.83;;;;;;;3.73;40.38;101522.44;4885022;29;20749;-66
2024/01/08 13:10:01;;;;;;;8.07;3.23;;;;;;;3.76;40.60;101522.31;4880438;29;20225;-66
2024/01/08 13:12:29;;;;;;;6.93;3.13;;;;;;;3.77;40.54;101528.41;4885167;29;20228;-66
2024/01/08 13:14:57;;;;;;;6.57;2.83;;;;;;;3.65;40.14;101521.16;4881373;29;20217;-65
2024/01/08 13:17:25;;;;;;;6.57;3.20;;;;;;;3.58;40.15;101517.16;4883556;29;20248;-66
2024/01/08 13:19:55;;;;;;;6.33;3.40;;;;;;;3.35;40.07;101516.53;4884890;29;20245;-66
2024/01/08 13:22:40;;;;;;;6.43;3.17;;;;;;;3.25;40.36;101531.03;4883797;29;20221;-65
2024/01/08 13:25:10;;;;;;;6.97;2.90;;;;;;;3.25;40.83;101531.03;4884612;29;20236;-67
2024/01/08 13:27:38;;;;;;;8.00;3.23;;;;;;;3.15;40.57;101528.94;4882528;29;20345;-65
2024/01/08 13:30:07;;;;;;;7.70;2.97;;;;;;;3.08;40.75;101530.16;4881694;29;20276;-68
2024/01/08 13:32:36;;;;;;;12.20;2.90;;;;;;;3.07;41.48;101523.22;4883405;29;20581;-66
2024/01/08 13:35:06;;;;;;;5.87;2.73;;;;;;;3.08;41.10;101528.38;4881627;29;20211;-66
2024/01/08 13:37:39;;;;;;;7.50;3.20;;;;;;;3.09;41.27;101527.44;4885211;29;20227;-66
2024/01/08 13:40:08;;;;;;;7.43;3.43;;;;;;;3.08;41.57;101522.31;4883703;29;20234;-67
2024/01/08 13:42:36;;;;;;;6.90;3.17;;;;;;;3.02;41.53;101520.81;4885817;29;20223;-65
2024/01/08 13:45:08;;;;;;;10.73;3.60;;;;;;;3.00;41.65;101525.25;4884078;29;20335;-66
2024/01/08 13:47:36;;;;;;;10.47;3.63;;;;;;;2.84;41.64;101530.41;4886772;29;21062;-67
2024/01/08 13:50:08;;;;;;;6.77;3.50;;;;;;;2.78;41.64;101522.84;4886864;29;20239;-68
2024/01/08 13:52:36;;;;;;;12.57;3.70;;;;;;;2.71;41.62;101534.53;4885362;29;20213;-66
2024/01/08 13:55:05;;;;;;;8.23;3.50;;;;;;;2.72;41.85;101531.00;4882590;29;20543;-67
2024/01/08 13:57:34;;;;;;;6.53;2.90;;;;;;;2.71;42.05;101536.31;4884832;29;20225;-66
2024/01/08 14:00:05;;;;;;;8.10;3.37;;;;;;;2.65;41.87;101533.03;4885662;29;20238;-67
2024/01/08 14:02:34;;;;;;;7.87;3.77;;;;;;;2.67;42.06;101532.13;4883721;29;20216;-68
2024/01/08 14:05:03;;;;;;;6.00;2.63;;;;;;;2.65;41.91;101538.28;4884278;29;20208;-66
2024/01/08 14:07:41;;;;;;;6.80;3.30;;;;;;;2.64;42.09;101544.44;4886485;29;20995;-66
2024/01/08 14:10:10;;;;;;;6.63;3.20;;;;;;;2.60;42.43;101540.28;4881549;29;20733;-67
2024/01/08 14:12:39;;;;;;;8.57;3.53;;;;;;;2.47;42.45;101551.38;4885215;29;20307;-66
2024/01/08 14:15:10;;;;;;;9.23;4.77;;;;;;;2.37;43.31;101553.59;4883435;29;20208;-65
2024/01/08 14:17:40;;;;;;;10.33;4.40;;;;;;;2.42;43.47;101554.22;4884498;29;20207;-67
2024/01/08 14:20:10;;;;;;;8.53;3.70;;;;;;;2.49;44.09;101549.53;4883011;29;20250;-66
2024/01/08 14:22:40;;;;;;;6.93;3.30;;;;;;;2.54;43.77;101558.91;4883996;29;20215;-65
2024/01/08 14:25:09;;;;;;;14.17;4.43;;;;;;;2.59;43.46;101556.91;4881247;29;20328;-66
2024/01/08 14:27:37;;;;;;;9.10;4.17;;;;;;;2.64;43.41;101560.13;4884158;29;20748;-65
2024/01/08 14:30:06;;;;;;;9.20;3.80;;;;;;;2.64;43.37;101562.75;4883632;29;20963;-65
2024/01/08 14:32:35;;;;;;;10.73;4.13;;;;;;;2.54;43.33;101561.50;4883421;29;20261;-68
2024/01/08 14:35:03;;;;;;;7.53;3.67;;;;;;;2.30;43.29;101564.38;4883388;29;20206;-66
2024/01/08 14:37:32;;;;;;;10.07;4.43;;;;;;;2.17;43.85;101564.94;4883754;29;20209;-66
2024/01/08 14:40:01;;;;;;;11.50;4.20;;;;;;;2.19;44.37;101563.09;4882033;29;20567;-66
2024/01/08 14:42:29;;;;;;;10.37;4.93;;;;;;;2.28;44.56;101577.56;4884291;29;20214;-67
2024/01/08 14:44:58;;;;;;;10.90;4.77;;;;;;;2.30;44.60;101575.69;4884832;29;20210;-66
2024/01/08 14:47:27;;;;;;;9.00;4.33;;;;;;;2.29;44.66;101581.03;4883451;29;20217;-66
2024/01/08 14:49:55;;;;;;;14.00;4.97;;;;;;;2.21;44.35;101569.09;4886329;29;20737;-68
2024/01/08 14:52:24;;;;;;;12.17;5.30;;;;;;;2.20;44.49;101572.63;4882038;29;20225;-68
2024/01/08 14:54:53;;;;;;;8.87;4.27;;;;;;;2.19;44.82;101577.97;4879778;29;20265;-67
2024/01/08 14:57:25;;;;;;;12.50;4.83;;;;;;;2.14;44.75;101569.44;4884747;29;20222;-67
2024/01/08 14:59:54;;;;;;;11.50;5.40;;;;;;;2.11;44.87;101580.06;4882897;29;20563;-66
2024/01/08 15:02:22;;;;;;;13.57;6.67;;;;;;;2.09;45.16;101584.50;4883510;29;20226;-67
2024/01/08 15:04:51;;;;;;;12.03;5.40;;;;;;;2.07;45.17;101592.41;4884819;29;20786;-68
2024/01/08 15:07:19;;;;;;;10.53;5.17;;;;;;;2.00;45.14;101598.00;4885916;29;20571;-67
2024/01/08 15:09:47;;;;;;;15.03;5.23;;;;;;;1.97;45.44;101596.34;4887637;29;20935;-67
2024/01/08 15:12:16;;;;;;;12.17;5.10;;;;;;;1.92;45.37;101594.84;4883206;29;20245;-67
2024/01/08 15:14:47;;;;;;;12.53;5.13;;;;;;;1.86;45.05;101599.41;4878736;29;20210;-66
2024/01/08 15:17:16;;;;;;;10.43;5.10;;;;;;;1.84;45.19;101596.03;4883346;29;20213;-67
2024/01/08 15:19:44;;;;;;;13.77;5.63;;;;;;;1.85;45.57;101604.72;4879129;29;21166;-66
2024/01/08 15:22:13;;;;;;;11.90;5.67;;;;;;;1.84;45.91;101616.97;4878329;29;20270;-67
2024/01/08 15:24:43;;;;;;;14.37;5.33;;;;;;;1.77;45.82;101602.41;4880502;29;20264;-68
2024/01/08 15:27:14;;;;;;;11.10;5.50;;;;;;;1.77;45.62;101610.25;4881513;29;20292;-66
2024/01/08 15:29:43;;;;;;;11.73;5.30;;;;;;;1.69;45.28;101617.59;4878037;29;20612;-67
2024/01/08 15:32:13;;;;;;;16.60;6.00;;;;;;;1.50;45.27;101614.03;4880165;29;20214;-67
2024/01/08 15:34:45;;;;;;;15.17;5.63;;;;;;;1.44;45.54;101614.28;4880629;29;20217;-67
2024/01/08 15:37:13;;;;;;;11.60;5.47;;;;;;;1.43;45.26;101617.81;4881731;29;20219;-66
2024/01/08 15:39:42;;;;;;;13.47;5.80;;;;;;;1.41;46.00;101619.63;4878945;29;20320;-67
2024/01/08 15:42:10;;;;;;;12.90;5.83;;;;;;;1.30;45.85;101622.69;4881592;29;20221;-67
2024/01/08 15:44:39;;;;;;;13.87;5.77;;;;;;;1.25;46.14;101608.09;4881908;29;20902;-66
2024/01/08 15:47:08;;;;;;;16.93;6.03;;;;;;;1.28;46.41;101618.44;4882349;29;20690;-66
2024/01/08 15:49:38;;;;;;;11.00;4.73;;;;;;;1.27;46.25;101620.19;4882139;29;20301;-66
2024/01/08 15:52:07;;;;;;;12.47;5.23;;;;;;;1.17;46.27;101621.47;4882131;29;20213;-70
2024/01/08 15:54:35;;;;;;;13.37;6.00;;;;;;;1.14;46.44;101622.41;4883439;29;20214;-66
2024/01/08 15:57:04;;;;;;;12.57;5.37;;;;;;;1.13;46.48;101625.13;4881500;29;20300;-66
2024/01/08 15:59:32;;;;;;;13.37;5.27;;;;;;;1.13;46.64;101628.59;4883597;29;20218;-66
2024/01/08 16:02:01;;;;;;;12.77;5.53;;;;;;;1.09;47.01;101629.59;4882246;29;20238;-66
2024/01/08 16:04:30;;;;;;;12.30;6.17;;;;;;;1.10;47.28;101631.31;4880136;29;20210;-66
2024/01/08 16:07:03;;;;;;;13.53;5.63;;;;;;;1.14;46.78;101632.88;4881845;29;20210;-66
2024/01/08 16:09:34;;;;;;;13.40;5.83;;;;;;;1.20;46.80;101630.94;4881754;29;20716;-67
2024/01/08 16:12:03;;;;;;;14.53;6.23;;;;;;;1.12;46.73;101624.25;4878831;29;20280;-66
2024/01/08 16:14:35;;;;;;;15.50;5.47;;;;;;;1.05;46.96;101629.78;4883057;29;20229;-70
2024/01/08 16:17:03;;;;;;;14.27;6.20;;;;;;;1.09;46.78;101650.50;4880370;29;20206;-66
2024/01/08 16:19:32;;;;;;;13.13;6.13;;;;;;;1.08;46.79;101645.31;4879359;29;20220;-66
2024/01/08 16:22:02;;;;;;;13.77;6.83;;;;;;;1.02;46.32;101648.19;4879590;29;20746;-67
2024/01/08 16:24:31;;;;;;;13.87;6.03;;;;;;;0.88;46.67;101658.31;4879097;29;20242;-66
2024/01/08 16:27:03;;;;;;;12.60;6.20;;;;;;;0.80;46.86;101669.03;4880452;29;20214;-67
2024/01/08 16:29:32;;;;;;;12.17;5.97;;;;;;;0.75;47.12;101670.97;4880947;29;21008;-66
2024/01/08 16:32:02;;;;;;;12.83;5.90;;;;;;;0.73;47.15;101678.00;4882387;29;20305;-65
2024/01/08 16:34:31;;;;;;;11.63;5.03;;;;;;;0.71;47.50;101682.41;4883255;29;20297;-65
2024/01/08 16:37:20;;;;;;;11.23;5.40;;;;;;;0.70;47.63;101688.56;4885734;29;20205;-66
2024/01/08 16:39:50;;;;;;;12.37;5.77;;;;;;;0.78;47.84;101694.38;4883563;29;20217;-66
2024/01/08 16:42:18;;;;;;;13.10;5.90;;;;;;;0.85;47.81;101690.59;4882829;29;20236;-67
2024/01/08 16:44:48;;;;;;;11.23;5.80;;;;;;;0.89;47.80;101697.41;4881923;29;20229;-66
2024/01/08 16:47:20;;;;;;;16.57;6.67;;;;;;;0.91;47.73;101692.97;4882473;29;20317;-65
2024/01/08 16:49:49;;;;;;;13.90;6.30;;;;;;;0.84;47.73;101696.75;4886882;29;20702;-66
2024/01/08 16:52:23;;;;;;;14.70;6.13;;;;;;;0.72;48.19;101686.72;4879130;29;20202;-66
2024/01/08 16:54:52;;;;;;;15.03;6.93;;;;;;;0.68;49.33;101690.38;4886127;29;20216;-65
2024/01/08 17:00:56;;;;;;;13.20;6.07;;;;;;;0.61;47.93;101710.63;4883172;29;21082;-66
2024/01/08 17:03:31;;;;;;;15.10;6.37;;;;;;;0.58;47.75;101709.88;4882648;29;20313;-66
